sensor_id;sensor_type;location;lat;lon;timestamp;pressure;altitude;pressure_sealevel;temperature;humidity
62025;BME280;47978;49.118;12.146;2022-08-19T00:01:23;96778.56;;;20.00;92.41
62025;BME280;47978;49.118;12.146;2022-08-19T00:03:57;96771.75;;;19.98;92.53
62025;BME280;47978;49.118;12.146;2022-08-19T00:06:25;96763.25;;;19.94;92.77
62025;BME280;47978;49.118;12.146;2022-08-19T00:08:52;96756.09;;;20.00;92.56
62025;BME280;47978;49.118;12.146;2022-08-19T00:11:20;96759.69;;;19.97;92.43
62025;BME280;47978;49.118;12.146;2022-08-19T00:13:51;96769.28;;;19.93;93.07
62025;BME280;47978;49.118;12.146;2022-08-19T00:16:18;96768.84;;;19.91;92.98
62025;BME280;47978;49.118;12.146;2022-08-19T00:18:50;96769.16;;;19.82;93.85
62025;BME280;47978;49.118;12.146;2022-08-19T00:21:17;96770.00;;;19.86;93.18
62025;BME280;47978;49.118;12.146;2022-08-19T00:23:43;96779.25;;;19.87;93.26
62025;BME280;47978;49.118;12.146;2022-08-19T00:26:10;96797.69;;;19.88;92.62
62025;BME280;47978;49.118;12.146;2022-08-19T00:28:38;96812.84;;;19.83;93.14
62025;BME280;47978;49.118;12.146;2022-08-19T00:31:07;96823.03;;;19.65;94.20
62025;BME280;47978;49.118;12.146;2022-08-19T00:33:34;96839.84;;;19.61;94.49
62025;BME280;47978;49.118;12.146;2022-08-19T00:36:01;96836.56;;;19.55;95.01
62025;BME280;47978;49.118;12.146;2022-08-19T00:38:28;96827.22;;;19.48;94.48
62025;BME280;47978;49.118;12.146;2022-08-19T00:41:03;96826.00;;;19.45;95.01
62025;BME280;47978;49.118;12.146;2022-08-19T00:43:30;96825.91;;;19.38;95.52
62025;BME280;47978;49.118;12.146;2022-08-19T00:45:58;96831.13;;;19.40;95.46
62025;BME280;47978;49.118;12.146;2022-08-19T00:48:24;96841.88;;;19.34;95.24
62025;BME280;47978;49.118;12.146;2022-08-19T00:50:52;96845.47;;;19.35;95.56
62025;BME280;47978;49.118;12.146;2022-08-19T00:53:23;96851.47;;;19.33;94.75
62025;BME280;47978;49.118;12.146;2022-08-19T00:55:51;96847.88;;;19.32;95.11
62025;BME280;47978;49.118;12.146;2022-08-19T00:58:22;96839.47;;;19.32;95.30
62025;BME280;47978;49.118;12.146;2022-08-19T01:00:50;96838.53;;;19.25;95.36
62025;BME280;47978;49.118;12.146;2022-08-19T01:03:19;96836.25;;;19.34;95.04
62025;BME280;47978;49.118;12.146;2022-08-19T01:05:47;96831.09;;;19.36;94.52
62025;BME280;47978;49.118;12.146;2022-08-19T01:08:16;96842.19;;;19.29;93.78
62025;BME280;47978;49.118;12.146;2022-08-19T01:10:45;96846.63;;;19.30;94.25
62025;BME280;47978;49.118;12.146;2022-08-19T01:13:14;96835.19;;;19.42;93.82
62025;BME280;47978;49.118;12.146;2022-08-19T01:15:44;96841.97;;;19.41;94.38
62025;BME280;47978;49.118;12.146;2022-08-19T01:18:13;96842.38;;;19.43;93.99
62025;BME280;47978;49.118;12.146;2022-08-19T01:20:42;96853.25;;;19.45;93.58
62025;BME280;47978;49.118;12.146;2022-08-19T01:23:10;96865.69;;;19.47;93.31
62025;BME280;47978;49.118;12.146;2022-08-19T01:25:41;96866.53;;;19.51;93.42
62025;BME280;47978;49.118;12.146;2022-08-19T01:28:15;96866.84;;;19.46;93.66
62025;BME280;47978;49.118;12.146;2022-08-19T01:30:42;96862.88;;;19.47;93.69
62025;BME280;47978;49.118;12.146;2022-08-19T01:33:16;96846.88;;;19.48;93.75
62025;BME280;47978;49.118;12.146;2022-08-19T01:35:42;96844.03;;;19.44;94.14
62025;BME280;47978;49.118;12.146;2022-08-19T01:38:20;96844.91;;;19.52;93.46
62025;BME280;47978;49.118;12.146;2022-08-19T01:40:47;96850.47;;;19.48;93.92
62025;BME280;47978;49.118;12.146;2022-08-19T01:43:14;96856.06;;;19.48;93.92
62025;BME280;47978;49.118;12.146;2022-08-19T01:45:40;96862.09;;;19.47;94.17
62025;BME280;47978;49.118;12.146;2022-08-19T01:48:08;96874.78;;;19.41;94.17
62025;BME280;47978;49.118;12.146;2022-08-19T01:50:34;96876.00;;;19.40;94.21
62025;BME280;47978;49.118;12.146;2022-08-19T01:53:03;96869.53;;;19.36;94.21
62025;BME280;47978;49.118;12.146;2022-08-19T01:55:36;96866.66;;;19.32;94.81
62025;BME280;47978;49.118;12.146;2022-08-19T01:58:11;96864.22;;;19.27;95.18
62025;BME280;47978;49.118;12.146;2022-08-19T02:00:38;96856.16;;;19.25;94.92
62025;BME280;47978;49.118;12.146;2022-08-19T02:03:05;96857.84;;;19.30;95.05
62025;BME280;47978;49.118;12.146;2022-08-19T02:05:32;96861.00;;;19.28;94.92
62025;BME280;47978;49.118;12.146;2022-08-19T02:07:58;96849.38;;;19.26;95.29
62025;BME280;47978;49.118;12.146;2022-08-19T02:10:25;96838.50;;;19.21;95.48
62025;BME280;47978;49.118;12.146;2022-08-19T02:12:53;96833.78;;;19.29;95.00
62025;BME280;47978;49.118;12.146;2022-08-19T02:15:20;96839.06;;;19.34;94.53
62025;BME280;47978;49.118;12.146;2022-08-19T02:17:48;96841.97;;;19.41;93.96
62025;BME280;47978;49.118;12.146;2022-08-19T02:20:15;96845.59;;;19.42;93.90
62025;BME280;47978;49.118;12.146;2022-08-19T02:22:42;96827.97;;;19.41;94.12
62025;BME280;47978;49.118;12.146;2022-08-19T02:25:09;96820.72;;;19.40;94.57
62025;BME280;47978;49.118;12.146;2022-08-19T02:27:36;96817.25;;;19.20;95.04
62025;BME280;47978;49.118;12.146;2022-08-19T02:30:06;96829.69;;;19.23;94.67
62025;BME280;47978;49.118;12.146;2022-08-19T02:32:39;96841.06;;;19.33;94.95
62025;BME280;47978;49.118;12.146;2022-08-19T02:35:11;96850.41;;;19.41;94.20
62025;BME280;47978;49.118;12.146;2022-08-19T02:37:38;96857.28;;;19.47;93.47
62025;BME280;47978;49.118;12.146;2022-08-19T02:40:05;96856.50;;;19.50;92.74
62025;BME280;47978;49.118;12.146;2022-08-19T02:42:38;96846.38;;;19.42;92.99
62025;BME280;47978;49.118;12.146;2022-08-19T02:45:06;96837.88;;;19.35;93.74
62025;BME280;47978;49.118;12.146;2022-08-19T02:47:33;96838.88;;;19.20;95.13
62025;BME280;47978;49.118;12.146;2022-08-19T02:50:01;96831.50;;;19.08;95.55
62025;BME280;47978;49.118;12.146;2022-08-19T02:52:28;96836.38;;;19.15;95.41
62025;BME280;47978;49.118;12.146;2022-08-19T02:54:55;96842.00;;;19.15;95.64
62025;BME280;47978;49.118;12.146;2022-08-19T02:57:21;96839.25;;;19.18;95.50
62025;BME280;47978;49.118;12.146;2022-08-19T02:59:48;96840.81;;;19.16;95.72
62025;BME280;47978;49.118;12.146;2022-08-19T03:02:16;96838.34;;;19.10;95.68
62025;BME280;47978;49.118;12.146;2022-08-19T03:04:42;96837.91;;;19.08;95.83
62025;BME280;47978;49.118;12.146;2022-08-19T03:07:09;96834.31;;;19.08;96.00
62025;BME280;47978;49.118;12.146;2022-08-19T03:09:39;96831.94;;;19.10;95.86
62025;BME280;47978;49.118;12.146;2022-08-19T03:12:06;96839.91;;;19.08;96.52
62025;BME280;47978;49.118;12.146;2022-08-19T03:14:33;96847.81;;;19.02;96.50
62025;BME280;47978;49.118;12.146;2022-08-19T03:17:00;96826.53;;;18.98;96.96
62025;BME280;47978;49.118;12.146;2022-08-19T03:19:28;96840.63;;;19.01;96.71
62025;BME280;47978;49.118;12.146;2022-08-19T03:21:54;96842.22;;;19.02;96.98
62025;BME280;47978;49.118;12.146;2022-08-19T03:24:21;96843.41;;;19.01;96.78
62025;BME280;47978;49.118;12.146;2022-08-19T03:26:50;96845.88;;;19.06;96.71
62025;BME280;47978;49.118;12.146;2022-08-19T03:29:17;96849.50;;;19.07;96.65
62025;BME280;47978;49.118;12.146;2022-08-19T03:31:56;96851.91;;;19.08;96.47
62025;BME280;47978;49.118;12.146;2022-08-19T03:34:25;96853.59;;;19.13;96.80
62025;BME280;47978;49.118;12.146;2022-08-19T03:36:54;96867.63;;;19.13;96.60
62025;BME280;47978;49.118;12.146;2022-08-19T03:39:21;96881.22;;;19.15;96.73
62025;BME280;47978;49.118;12.146;2022-08-19T03:41:48;96890.44;;;19.15;96.43
62025;BME280;47978;49.118;12.146;2022-08-19T03:44:36;96885.22;;;19.14;96.24
62025;BME280;47978;49.118;12.146;2022-08-19T03:47:03;96888.75;;;19.07;96.51
62025;BME280;47978;49.118;12.146;2022-08-19T03:49:31;96885.50;;;19.05;96.78
62025;BME280;47978;49.118;12.146;2022-08-19T03:51:59;96888.31;;;19.05;96.77
62025;BME280;47978;49.118;12.146;2022-08-19T03:54:26;96882.25;;;19.03;96.53
62025;BME280;47978;49.118;12.146;2022-08-19T03:56:55;96879.03;;;19.01;96.97
62025;BME280;47978;49.118;12.146;2022-08-19T03:59:24;96876.66;;;19.03;96.82
62025;BME280;47978;49.118;12.146;2022-08-19T04:01:51;96875.09;;;19.05;96.74
62025;BME280;47978;49.118;12.146;2022-08-19T04:04:18;96874.59;;;19.00;97.35
62025;BME280;47978;49.118;12.146;2022-08-19T04:06:45;96876.59;;;18.99;97.58
62025;BME280;47978;49.118;12.146;2022-08-19T04:09:13;96889.81;;;18.99;97.19
62025;BME280;47978;49.118;12.146;2022-08-19T04:11:42;96899.13;;;19.06;97.16
62025;BME280;47978;49.118;12.146;2022-08-19T04:14:11;96909.22;;;19.11;96.35
62025;BME280;47978;49.118;12.146;2022-08-19T04:16:38;96916.88;;;19.14;96.12
62025;BME280;47978;49.118;12.146;2022-08-19T04:19:05;96924.53;;;19.17;96.44
62025;BME280;47978;49.118;12.146;2022-08-19T04:21:32;96930.78;;;19.07;96.85
62025;BME280;47978;49.118;12.146;2022-08-19T04:24:00;96925.53;;;19.05;96.55
62025;BME280;47978;49.118;12.146;2022-08-19T04:26:33;96934.69;;;19.02;96.99
62025;BME280;47978;49.118;12.146;2022-08-19T04:29:00;96933.41;;;18.96;97.08
62025;BME280;47978;49.118;12.146;2022-08-19T04:31:29;96939.44;;;18.98;96.93
62025;BME280;47978;49.118;12.146;2022-08-19T04:33:58;96945.53;;;19.04;97.19
62025;BME280;47978;49.118;12.146;2022-08-19T04:36:27;96958.47;;;19.12;96.86
62025;BME280;47978;49.118;12.146;2022-08-19T04:38:57;96961.72;;;19.14;95.78
62025;BME280;47978;49.118;12.146;2022-08-19T04:41:25;96968.44;;;19.09;96.61
62025;BME280;47978;49.118;12.146;2022-08-19T04:43:53;96954.63;;;18.97;97.30
62025;BME280;47978;49.118;12.146;2022-08-19T04:46:19;96954.53;;;18.90;97.84
62025;BME280;47978;49.118;12.146;2022-08-19T04:49:07;96934.78;;;18.83;98.55
62025;BME280;47978;49.118;12.146;2022-08-19T04:51:40;96930.41;;;18.85;98.24
62025;BME280;47978;49.118;12.146;2022-08-19T04:54:07;96935.66;;;18.87;98.22
62025;BME280;47978;49.118;12.146;2022-08-19T04:56:33;96939.69;;;18.90;98.13
62025;BME280;47978;49.118;12.146;2022-08-19T04:59:02;96943.41;;;18.97;97.89
62025;BME280;47978;49.118;12.146;2022-08-19T05:01:29;96947.78;;;18.95;98.26
62025;BME280;47978;49.118;12.146;2022-08-19T05:03:57;96954.31;;;19.02;98.15
62025;BME280;47978;49.118;12.146;2022-08-19T05:06:24;96963.97;;;19.05;97.74
62025;BME280;47978;49.118;12.146;2022-08-19T05:08:51;96963.66;;;19.10;97.57
62025;BME280;47978;49.118;12.146;2022-08-19T05:11:20;96968.03;;;19.07;97.77
62025;BME280;47978;49.118;12.146;2022-08-19T05:13:52;96963.91;;;19.01;97.58
62025;BME280;47978;49.118;12.146;2022-08-19T05:16:22;96973.44;;;18.97;97.88
62025;BME280;47978;49.118;12.146;2022-08-19T05:18:49;96965.38;;;18.95;98.16
62025;BME280;47978;49.118;12.146;2022-08-19T05:21:19;96970.38;;;19.05;98.16
62025;BME280;47978;49.118;12.146;2022-08-19T05:23:45;96970.56;;;19.16;97.32
62025;BME280;47978;49.118;12.146;2022-08-19T05:26:12;96981.88;;;19.23;97.39
62025;BME280;47978;49.118;12.146;2022-08-19T05:28:39;96985.47;;;19.24;97.72
62025;BME280;47978;49.118;12.146;2022-08-19T05:31:05;96976.97;;;19.17;97.99
62025;BME280;47978;49.118;12.146;2022-08-19T05:33:33;96982.53;;;19.13;97.89
62025;BME280;47978;49.118;12.146;2022-08-19T05:36:00;96984.31;;;19.25;97.31
62025;BME280;47978;49.118;12.146;2022-08-19T05:38:27;96996.81;;;19.31;97.14
62025;BME280;47978;49.118;12.146;2022-08-19T05:40:54;96985.94;;;19.26;96.61
62025;BME280;47978;49.118;12.146;2022-08-19T05:43:20;96983.13;;;19.26;97.24
62025;BME280;47978;49.118;12.146;2022-08-19T05:45:47;96978.81;;;19.32;96.85
62025;BME280;47978;49.118;12.146;2022-08-19T05:48:13;96987.34;;;19.39;96.85
62025;BME280;47978;49.118;12.146;2022-08-19T05:50:41;96984.59;;;19.43;96.30
62025;BME280;47978;49.118;12.146;2022-08-19T05:53:08;96988.53;;;19.38;96.43
62025;BME280;47978;49.118;12.146;2022-08-19T05:55:35;96985.25;;;19.32;96.72
62025;BME280;47978;49.118;12.146;2022-08-19T05:58:02;96982.38;;;19.29;96.94
62025;BME280;47978;49.118;12.146;2022-08-19T06:00:29;96978.88;;;19.36;96.95
62025;BME280;47978;49.118;12.146;2022-08-19T06:02:55;96973.38;;;19.43;96.81
62025;BME280;47978;49.118;12.146;2022-08-19T06:05:22;96972.66;;;19.49;96.31
62025;BME280;47978;49.118;12.146;2022-08-19T06:07:50;96974.31;;;19.50;96.19
62025;BME280;47978;49.118;12.146;2022-08-19T06:10:17;96980.84;;;19.58;96.08
62025;BME280;47978;49.118;12.146;2022-08-19T06:12:43;96976.50;;;19.64;95.92
62025;BME280;47978;49.118;12.146;2022-08-19T06:15:12;96963.81;;;19.70;95.61
62025;BME280;47978;49.118;12.146;2022-08-19T06:17:40;96966.56;;;19.67;95.57
62025;BME280;47978;49.118;12.146;2022-08-19T06:20:08;96969.53;;;19.54;95.06
62025;BME280;47978;49.118;12.146;2022-08-19T06:22:37;96964.56;;;19.67;94.77
62025;BME280;47978;49.118;12.146;2022-08-19T06:25:06;96964.72;;;19.78;93.48
62025;BME280;47978;49.118;12.146;2022-08-19T06:27:33;96961.84;;;19.74;93.32
62025;BME280;47978;49.118;12.146;2022-08-19T06:30:00;96958.25;;;19.74;94.34
62025;BME280;47978;49.118;12.146;2022-08-19T06:32:27;96955.19;;;19.86;93.90
62025;BME280;47978;49.118;12.146;2022-08-19T06:34:53;96964.09;;;19.92;92.88
62025;BME280;47978;49.118;12.146;2022-08-19T06:37:20;96969.38;;;19.97;92.55
62025;BME280;47978;49.118;12.146;2022-08-19T06:39:47;96970.28;;;20.05;92.49
62025;BME280;47978;49.118;12.146;2022-08-19T06:42:15;96967.06;;;20.06;91.83
62025;BME280;47978;49.118;12.146;2022-08-19T06:44:44;96969.50;;;20.08;91.49
62025;BME280;47978;49.118;12.146;2022-08-19T06:47:17;96974.47;;;20.18;91.33
62025;BME280;47978;49.118;12.146;2022-08-19T06:49:54;96983.28;;;20.20;91.28
62025;BME280;47978;49.118;12.146;2022-08-19T06:52:26;96987.78;;;20.25;90.78
62025;BME280;47978;49.118;12.146;2022-08-19T06:54:54;96992.25;;;20.29;90.85
62025;BME280;47978;49.118;12.146;2022-08-19T06:57:24;96990.72;;;20.35;90.31
62025;BME280;47978;49.118;12.146;2022-08-19T06:59:50;96992.19;;;20.26;91.81
62025;BME280;47978;49.118;12.146;2022-08-19T07:02:17;96992.94;;;20.22;91.35
62025;BME280;47978;49.118;12.146;2022-08-19T07:04:44;96984.34;;;20.38;90.99
62025;BME280;47978;49.118;12.146;2022-08-19T07:07:13;96995.31;;;20.51;89.36
62025;BME280;47978;49.118;12.146;2022-08-19T07:09:47;96984.59;;;20.60;89.24
62025;BME280;47978;49.118;12.146;2022-08-19T07:12:28;96969.38;;;20.61;89.33
62025;BME280;47978;49.118;12.146;2022-08-19T07:14:56;96962.56;;;20.65;88.81
62025;BME280;47978;49.118;12.146;2022-08-19T07:17:23;96964.16;;;20.63;88.55
62025;BME280;47978;49.118;12.146;2022-08-19T07:19:50;96961.81;;;20.69;88.34
62025;BME280;47978;49.118;12.146;2022-08-19T07:22:19;96965.59;;;20.87;87.46
62025;BME280;47978;49.118;12.146;2022-08-19T07:24:46;96965.66;;;20.94;87.00
62025;BME280;47978;49.118;12.146;2022-08-19T07:27:17;96964.50;;;20.99;87.55
62025;BME280;47978;49.118;12.146;2022-08-19T07:29:52;96972.41;;;20.86;88.04
62025;BME280;47978;49.118;12.146;2022-08-19T07:32:23;96972.41;;;20.86;87.50
62025;BME280;47978;49.118;12.146;2022-08-19T07:34:50;96963.31;;;21.00;87.51
62025;BME280;47978;49.118;12.146;2022-08-19T07:37:17;96979.00;;;21.01;87.40
62025;BME280;47978;49.118;12.146;2022-08-19T07:39:44;96977.00;;;21.05;87.44
62025;BME280;47978;49.118;12.146;2022-08-19T07:42:10;96995.47;;;21.02;87.31
62025;BME280;47978;49.118;12.146;2022-08-19T07:44:39;97003.09;;;21.02;87.14
62025;BME280;47978;49.118;12.146;2022-08-19T07:47:12;97007.22;;;20.74;89.31
62025;BME280;47978;49.118;12.146;2022-08-19T07:49:58;97005.22;;;20.75;88.75
62025;BME280;47978;49.118;12.146;2022-08-19T07:52:25;97005.97;;;20.68;88.80
62025;BME280;47978;49.118;12.146;2022-08-19T07:54:51;97007.13;;;20.63;89.39
62025;BME280;47978;49.118;12.146;2022-08-19T07:57:18;97003.09;;;20.61;89.59
62025;BME280;47978;49.118;12.146;2022-08-19T07:59:44;97000.22;;;20.57;89.32
62025;BME280;47978;49.118;12.146;2022-08-19T08:02:12;97001.50;;;20.63;89.12
62025;BME280;47978;49.118;12.146;2022-08-19T08:04:39;96996.69;;;20.64;89.20
62025;BME280;47978;49.118;12.146;2022-08-19T08:07:07;97000.38;;;20.72;89.25
62025;BME280;47978;49.118;12.146;2022-08-19T08:09:36;97002.47;;;20.78;88.47
62025;BME280;47978;49.118;12.146;2022-08-19T08:12:07;96999.78;;;20.93;87.38
62025;BME280;47978;49.118;12.146;2022-08-19T08:14:57;97001.09;;;21.06;85.49
62025;BME280;47978;49.118;12.146;2022-08-19T08:17:27;96991.47;;;21.03;85.95
62025;BME280;47978;49.118;12.146;2022-08-19T08:20:14;96993.19;;;21.15;84.72
62025;BME280;47978;49.118;12.146;2022-08-19T08:22:43;96994.09;;;21.26;84.69
62025;BME280;47978;49.118;12.146;2022-08-19T08:25:12;96990.50;;;21.29;83.33
62025;BME280;47978;49.118;12.146;2022-08-19T08:27:43;96989.97;;;21.20;85.09
62025;BME280;47978;49.118;12.146;2022-08-19T08:30:18;96988.38;;;21.19;85.11
62025;BME280;47978;49.118;12.146;2022-08-19T08:32:46;96992.41;;;21.18;85.24
62025;BME280;47978;49.118;12.146;2022-08-19T08:35:18;96982.84;;;21.30;84.66
62025;BME280;47978;49.118;12.146;2022-08-19T08:37:45;96974.13;;;21.39;83.98
62025;BME280;47978;49.118;12.146;2022-08-19T08:40:18;96981.41;;;21.47;83.87
62025;BME280;47978;49.118;12.146;2022-08-19T08:42:51;96970.97;;;21.51;83.26
62025;BME280;47978;49.118;12.146;2022-08-19T08:45:22;96977.53;;;21.69;82.59
62025;BME280;47978;49.118;12.146;2022-08-19T08:47:52;96966.78;;;21.86;82.47
62025;BME280;47978;49.118;12.146;2022-08-19T08:50:23;96962.06;;;22.04;82.08
62025;BME280;47978;49.118;12.146;2022-08-19T08:52:53;96965.41;;;22.28;81.44
62025;BME280;47978;49.118;12.146;2022-08-19T08:55:23;96968.69;;;22.40;79.49
62025;BME280;47978;49.118;12.146;2022-08-19T08:57:53;96965.16;;;22.68;78.71
62025;BME280;47978;49.118;12.146;2022-08-19T09:00:25;96961.06;;;22.52;79.56
62025;BME280;47978;49.118;12.146;2022-08-19T09:02:54;96954.69;;;22.80;78.59
62025;BME280;47978;49.118;12.146;2022-08-19T09:05:23;96935.72;;;22.70;78.05
62025;BME280;47978;49.118;12.146;2022-08-19T09:08:08;96937.75;;;22.65;77.15
62025;BME280;47978;49.118;12.146;2022-08-19T09:10:43;96945.06;;;22.95;76.46
62025;BME280;47978;49.118;12.146;2022-08-19T09:13:15;96938.63;;;23.12;77.19
62025;BME280;47978;49.118;12.146;2022-08-19T09:15:47;96946.28;;;23.23;76.48
62025;BME280;47978;49.118;12.146;2022-08-19T09:18:15;96960.78;;;23.10;74.41
62025;BME280;47978;49.118;12.146;2022-08-19T09:20:45;96964.00;;;22.98;75.14
62025;BME280;47978;49.118;12.146;2022-08-19T09:23:12;96965.63;;;23.28;74.64
62025;BME280;47978;49.118;12.146;2022-08-19T09:25:38;96962.78;;;23.64;72.62
62025;BME280;47978;49.118;12.146;2022-08-19T09:28:05;96965.19;;;23.76;72.63
62025;BME280;47978;49.118;12.146;2022-08-19T09:30:48;96970.88;;;23.44;72.03
62025;BME280;47978;49.118;12.146;2022-08-19T09:33:16;96975.69;;;23.57;71.81
62025;BME280;47978;49.118;12.146;2022-08-19T09:35:42;96967.63;;;23.42;72.40
62025;BME280;47978;49.118;12.146;2022-08-19T09:38:18;96970.84;;;23.33;73.82
62025;BME280;47978;49.118;12.146;2022-08-19T09:40:46;96974.91;;;23.46;73.11
62025;BME280;47978;49.118;12.146;2022-08-19T09:43:13;96971.69;;;23.37;72.22
62025;BME280;47978;49.118;12.146;2022-08-19T09:45:39;96972.84;;;23.79;71.11
62025;BME280;47978;49.118;12.146;2022-08-19T09:48:06;96967.13;;;24.15;69.43
62025;BME280;47978;49.118;12.146;2022-08-19T09:50:36;96971.47;;;24.48;69.02
62025;BME280;47978;49.118;12.146;2022-08-19T09:53:03;96978.22;;;24.68;68.18
62025;BME280;47978;49.118;12.146;2022-08-19T09:55:32;96987.19;;;24.56;68.24
62025;BME280;47978;49.118;12.146;2022-08-19T09:58:00;96993.97;;;24.66;67.65
62025;BME280;47978;49.118;12.146;2022-08-19T10:00:27;96998.41;;;24.71;67.39
62025;BME280;47978;49.118;12.146;2022-08-19T10:02:53;96998.84;;;24.58;67.12
62025;BME280;47978;49.118;12.146;2022-08-19T10:05:20;97002.13;;;24.39;68.34
62025;BME280;47978;49.118;12.146;2022-08-19T10:07:53;97014.00;;;23.87;72.72
62025;BME280;47978;49.118;12.146;2022-08-19T10:10:22;97009.16;;;23.70;73.76
62025;BME280;47978;49.118;12.146;2022-08-19T10:12:50;97018.81;;;23.37;72.91
62025;BME280;47978;49.118;12.146;2022-08-19T10:15:16;97019.22;;;23.39;73.45
62025;BME280;47978;49.118;12.146;2022-08-19T10:17:54;97020.03;;;23.25;72.17
62025;BME280;47978;49.118;12.146;2022-08-19T10:20:21;97019.19;;;22.96;76.18
62025;BME280;47978;49.118;12.146;2022-08-19T10:22:48;97019.94;;;22.82;77.26
62025;BME280;47978;49.118;12.146;2022-08-19T10:25:18;97010.25;;;22.76;77.08
62025;BME280;47978;49.118;12.146;2022-08-19T10:27:45;97010.25;;;22.79;76.79
62025;BME280;47978;49.118;12.146;2022-08-19T10:30:17;97003.84;;;22.86;76.95
62025;BME280;47978;49.118;12.146;2022-08-19T10:32:45;97003.38;;;22.73;75.28
62025;BME280;47978;49.118;12.146;2022-08-19T10:35:13;97007.84;;;22.85;75.83
62025;BME280;47978;49.118;12.146;2022-08-19T10:37:47;96999.84;;;22.98;75.13
62025;BME280;47978;49.118;12.146;2022-08-19T10:40:25;97003.50;;;23.27;73.75
62025;BME280;47978;49.118;12.146;2022-08-19T10:42:52;96994.25;;;23.26;73.32
62025;BME280;47978;49.118;12.146;2022-08-19T10:45:18;96994.22;;;23.33;72.59
62025;BME280;47978;49.118;12.146;2022-08-19T10:47:45;96987.41;;;23.60;71.95
62025;BME280;47978;49.118;12.146;2022-08-19T10:50:11;96984.56;;;23.60;72.40
62025;BME280;47978;49.118;12.146;2022-08-19T10:52:39;96986.97;;;23.65;71.77
62025;BME280;47978;49.118;12.146;2022-08-19T10:55:16;96983.38;;;23.71;71.63
62025;BME280;47978;49.118;12.146;2022-08-19T10:57:45;96989.41;;;23.63;72.06
62025;BME280;47978;49.118;12.146;2022-08-19T11:00:28;96986.97;;;23.79;71.51
62025;BME280;47978;49.118;12.146;2022-08-19T11:02:54;96977.28;;;23.87;70.71
62025;BME280;47978;49.118;12.146;2022-08-19T11:05:21;96982.06;;;24.05;70.50
62025;BME280;47978;49.118;12.146;2022-08-19T11:07:49;96978.84;;;24.06;70.63
62025;BME280;47978;49.118;12.146;2022-08-19T11:10:16;96971.53;;;24.23;70.04
62025;BME280;47978;49.118;12.146;2022-08-19T11:12:48;96968.13;;;24.64;69.07
62025;BME280;47978;49.118;12.146;2022-08-19T11:15:15;96972.88;;;24.81;66.29
62025;BME280;47978;49.118;12.146;2022-08-19T11:17:42;96973.38;;;24.69;68.04
62025;BME280;47978;49.118;12.146;2022-08-19T11:20:10;96969.59;;;24.94;65.51
62025;BME280;47978;49.118;12.146;2022-08-19T11:22:37;96972.31;;;24.34;66.67
62025;BME280;47978;49.118;12.146;2022-08-19T11:25:08;96973.16;;;24.20;67.30
62025;BME280;47978;49.118;12.146;2022-08-19T11:27:38;96975.63;;;24.04;67.81
62025;BME280;47978;49.118;12.146;2022-08-19T11:30:08;96983.72;;;23.98;68.16
62025;BME280;47978;49.118;12.146;2022-08-19T11:32:38;96980.09;;;23.94;68.68
62025;BME280;47978;49.118;12.146;2022-08-19T11:35:05;96970.84;;;23.87;68.86
62025;BME280;47978;49.118;12.146;2022-08-19T11:37:32;96969.63;;;23.70;69.44
62025;BME280;47978;49.118;12.146;2022-08-19T11:39:59;96964.38;;;23.86;69.10
62025;BME280;47978;49.118;12.146;2022-08-19T11:42:25;96974.47;;;23.73;69.30
62025;BME280;47978;49.118;12.146;2022-08-19T11:44:52;96978.09;;;23.91;68.86
62025;BME280;47978;49.118;12.146;2022-08-19T11:47:20;96980.06;;;24.09;69.31
62025;BME280;47978;49.118;12.146;2022-08-19T11:49:47;96977.25;;;24.01;70.51
62025;BME280;47978;49.118;12.146;2022-08-19T11:52:13;96976.84;;;23.96;70.24
62025;BME280;47978;49.118;12.146;2022-08-19T11:54:40;96972.44;;;23.95;70.42
62025;BME280;47978;49.118;12.146;2022-08-19T11:57:06;96964.34;;;23.97;70.25
62025;BME280;47978;49.118;12.146;2022-08-19T11:59:33;96968.81;;;23.94;70.48
62025;BME280;47978;49.118;12.146;2022-08-19T12:01:59;96959.97;;;23.24;71.46
62025;BME280;47978;49.118;12.146;2022-08-19T12:04:27;96956.34;;;23.38;71.66
62025;BME280;47978;49.118;12.146;2022-08-19T12:06:54;96953.13;;;23.29;72.18
62025;BME280;47978;49.118;12.146;2022-08-19T12:09:20;96953.53;;;23.27;72.89
62025;BME280;47978;49.118;12.146;2022-08-19T12:11:47;96953.16;;;23.11;74.53
62025;BME280;47978;49.118;12.146;2022-08-19T12:14:13;96942.66;;;23.33;73.64
62025;BME280;47978;49.118;12.146;2022-08-19T12:16:44;96937.41;;;23.46;74.04
62025;BME280;47978;49.118;12.146;2022-08-19T12:19:16;96934.56;;;23.60;75.05
62025;BME280;47978;49.118;12.146;2022-08-19T12:21:49;96943.41;;;23.69;74.64
62025;BME280;47978;49.118;12.146;2022-08-19T12:24:17;96941.84;;;23.54;74.38
62025;BME280;47978;49.118;12.146;2022-08-19T12:26:43;96942.22;;;23.52;75.89
62025;BME280;47978;49.118;12.146;2022-08-19T12:29:18;96951.50;;;23.53;74.41
62025;BME280;47978;49.118;12.146;2022-08-19T12:31:49;96953.16;;;23.11;77.39
62025;BME280;47978;49.118;12.146;2022-08-19T12:34:15;96945.09;;;23.20;77.25
62025;BME280;47978;49.118;12.146;2022-08-19T12:36:42;96945.88;;;23.06;78.73
62025;BME280;47978;49.118;12.146;2022-08-19T12:39:10;96947.88;;;22.95;80.97
62025;BME280;47978;49.118;12.146;2022-08-19T12:41:39;96940.63;;;23.05;79.67
62025;BME280;47978;49.118;12.146;2022-08-19T12:44:20;96948.22;;;22.76;82.10
62025;BME280;47978;49.118;12.146;2022-08-19T12:46:55;96952.25;;;22.82;79.33
62025;BME280;47978;49.118;12.146;2022-08-19T12:49:21;96946.66;;;22.89;78.47
62025;BME280;47978;49.118;12.146;2022-08-19T12:52:08;96953.53;;;22.99;77.74
62025;BME280;47978;49.118;12.146;2022-08-19T12:54:37;96953.09;;;22.97;78.40
62025;BME280;47978;49.118;12.146;2022-08-19T12:57:07;96949.81;;;22.59;80.47
62025;BME280;47978;49.118;12.146;2022-08-19T12:59:34;96946.56;;;22.53;78.30